sensor_id;sensor_type;location;lat;lon;timestamp;P1;durP1;ratioP1;P2;durP2;ratioP2
55112;SDS011;41006;50.920;3.456;2022-12-18T00:00:29;81.50;;;51.10;;
55112;SDS011;41006;50.920;3.456;2022-12-18T00:01:02;86.78;;;52.50;;
55112;SDS011;41006;50.920;3.456;2022-12-18T00:01:36;79.18;;;50.25;;
55112;SDS011;41006;50.920;3.456;2022-12-18T00:02:10;75.57;;;49.80;;
55112;SDS011;41006;50.920;3.456;2022-12-18T00:02:40;78.63;;;49.97;;
55112;SDS011;41006;50.920;3.456;2022-12-18T00:03:11;85.35;;;51.00;;
55112;SDS011;41006;50.920;3.456;2022-12-18T00:03:42;86.25;;;52.40;;
55112;SDS011;41006;50.920;3.456;2022-12-18T00:04:16;81.72;;;52.60;;
55112;SDS011;41006;50.920;3.456;2022-12-18T00:04:50;79.10;;;50.70;;
55112;SDS011;41006;50.920;3.456;2022-12-18T00:05:23;74.30;;;49.53;;
55112;SDS011;41006;50.920;3.456;2022-12-18T00:05:59;75.82;;;50.28;;
55112;SDS011;41006;50.920;3.456;2022-12-18T00:06:32;86.30;;;54.05;;
55112;SDS011;41006;50.920;3.456;2022-12-18T00:07:03;84.47;;;51.05;;
55112;SDS011;41006;50.920;3.456;2022-12-18T00:07:34;81.70;;;52.60;;
55112;SDS011;41006;50.920;3.456;2022-12-18T00:08:05;84.55;;;53.60;;
55112;SDS011;41006;50.920;3.456;2022-12-18T00:08:35;81.75;;;51.53;;
55112;SDS011;41006;50.920;3.456;2022-12-18T00:09:06;83.88;;;51.92;;
55112;SDS011;41006;50.920;3.456;2022-12-18T00:09:38;82.90;;;49.60;;
55112;SDS011;41006;50.920;3.456;2022-12-18T00:10:11;86.00;;;50.17;;
55112;SDS011;41006;50.920;3.456;2022-12-18T00:10:42;82.95;;;50.63;;
55112;SDS011;41006;50.920;3.456;2022-12-18T00:11:14;83.28;;;50.67;;
55112;SDS011;41006;50.920;3.456;2022-12-18T00:11:46;90.40;;;50.05;;
55112;SDS011;41006;50.920;3.456;2022-12-18T00:12:16;80.43;;;49.63;;
55112;SDS011;41006;50.920;3.456;2022-12-18T00:12:47;83.07;;;48.28;;
55112;SDS011;41006;50.920;3.456;2022-12-18T00:13:17;85.88;;;49.22;;
55112;SDS011;41006;50.920;3.456;2022-12-18T00:13:50;78.75;;;49.22;;
55112;SDS011;41006;50.920;3.456;2022-12-18T00:14:27;79.03;;;49.13;;
55112;SDS011;41006;50.920;3.456;2022-12-18T00:15:01;85.35;;;49.35;;
55112;SDS011;41006;50.920;3.456;2022-12-18T00:15:33;93.38;;;50.63;;
55112;SDS011;41006;50.920;3.456;2022-12-18T00:16:09;93.80;;;50.08;;
55112;SDS011;41006;50.920;3.456;2022-12-18T00:17:16;93.32;;;50.72;;
55112;SDS011;41006;50.920;3.456;2022-12-18T00:17:46;96.53;;;51.97;;
55112;SDS011;41006;50.920;3.456;2022-12-18T00:18:16;98.50;;;50.53;;
55112;SDS011;41006;50.920;3.456;2022-12-18T00:18:48;92.10;;;51.63;;
55112;SDS011;41006;50.920;3.456;2022-12-18T00:19:20;96.80;;;52.47;;
55112;SDS011;41006;50.920;3.456;2022-12-18T00:19:53;99.15;;;54.58;;
55112;SDS011;41006;50.920;3.456;2022-12-18T00:20:23;88.97;;;50.67;;
55112;SDS011;41006;50.920;3.456;2022-12-18T00:20:57;97.22;;;52.60;;
55112;SDS011;41006;50.920;3.456;2022-12-18T00:21:29;97.70;;;53.47;;
55112;SDS011;41006;50.920;3.456;2022-12-18T00:22:01;96.85;;;52.90;;
55112;SDS011;41006;50.920;3.456;2022-12-18T00:22:31;98.82;;;53.00;;
55112;SDS011;41006;50.920;3.456;2022-12-18T00:23:01;97.15;;;53.58;;
55112;SDS011;41006;50.920;3.456;2022-12-18T00:23:32;88.07;;;50.58;;
55112;SDS011;41006;50.920;3.456;2022-12-18T00:24:04;91.90;;;51.33;;
55112;SDS011;41006;50.920;3.456;2022-12-18T00:24:35;88.55;;;50.08;;
55112;SDS011;41006;50.920;3.456;2022-12-18T00:25:05;91.05;;;51.78;;
55112;SDS011;41006;50.920;3.456;2022-12-18T00:25:36;94.88;;;51.80;;
55112;SDS011;41006;50.920;3.456;2022-12-18T00:26:15;85.35;;;47.05;;
55112;SDS011;41006;50.920;3.456;2022-12-18T00:26:50;84.63;;;47.55;;
55112;SDS011;41006;50.920;3.456;2022-12-18T00:27:21;87.40;;;50.22;;
55112;SDS011;41006;50.920;3.456;2022-12-18T00:27:56;87.07;;;50.13;;
55112;SDS011;41006;50.920;3.456;2022-12-18T00:28:27;81.40;;;48.53;;
55112;SDS011;41006;50.920;3.456;2022-12-18T00:29:01;98.22;;;50.65;;
55112;SDS011;41006;50.920;3.456;2022-12-18T00:29:41;84.50;;;49.42;;
55112;SDS011;41006;50.920;3.456;2022-12-18T00:30:14;88.35;;;49.83;;
55112;SDS011;41006;50.920;3.456;2022-12-18T00:30:47;89.65;;;50.33;;
55112;SDS011;41006;50.920;3.456;2022-12-18T00:31:21;91.07;;;49.55;;
55112;SDS011;41006;50.920;3.456;2022-12-18T00:31:56;91.57;;;49.00;;
55112;SDS011;41006;50.920;3.456;2022-12-18T00:32:28;80.88;;;48.92;;
55112;SDS011;41006;50.920;3.456;2022-12-18T00:32:59;86.57;;;48.17;;
55112;SDS011;41006;50.920;3.456;2022-12-18T00:33:31;82.82;;;47.45;;
55112;SDS011;41006;50.920;3.456;2022-12-18T00:34:05;83.30;;;48.50;;
55112;SDS011;41006;50.920;3.456;2022-12-18T00:34:35;84.20;;;50.15;;
55112;SDS011;41006;50.920;3.456;2022-12-18T00:35:08;78.30;;;46.00;;
55112;SDS011;41006;50.920;3.456;2022-12-18T00:35:43;86.10;;;49.05;;
55112;SDS011;41006;50.920;3.456;2022-12-18T00:36:17;87.65;;;47.95;;
55112;SDS011;41006;50.920;3.456;2022-12-18T00:36:50;81.72;;;49.70;;
55112;SDS011;41006;50.920;3.456;2022-12-18T00:37:20;85.43;;;47.63;;
55112;SDS011;41006;50.920;3.456;2022-12-18T00:37:51;89.40;;;50.03;;
55112;SDS011;41006;50.920;3.456;2022-12-18T00:38:25;82.70;;;48.13;;
55112;SDS011;41006;50.920;3.456;2022-12-18T00:39:02;86.32;;;46.50;;
55112;SDS011;41006;50.920;3.456;2022-12-18T00:39:34;91.15;;;52.95;;
55112;SDS011;41006;50.920;3.456;2022-12-18T00:40:07;82.20;;;48.55;;
55112;SDS011;41006;50.920;3.456;2022-12-18T00:40:38;85.72;;;47.05;;
55112;SDS011;41006;50.920;3.456;2022-12-18T00:41:14;78.82;;;48.40;;
55112;SDS011;41006;50.920;3.456;2022-12-18T00:42:09;85.75;;;49.25;;
55112;SDS011;41006;50.920;3.456;2022-12-18T00:42:58;89.97;;;51.53;;
55112;SDS011;41006;50.920;3.456;2022-12-18T00:43:29;82.13;;;50.90;;
55112;SDS011;41006;50.920;3.456;2022-12-18T00:44:03;90.72;;;53.85;;
55112;SDS011;41006;50.920;3.456;2022-12-18T00:44:34;96.75;;;55.13;;
55112;SDS011;41006;50.920;3.456;2022-12-18T00:45:05;89.57;;;56.55;;
55112;SDS011;41006;50.920;3.456;2022-12-18T00:45:36;93.13;;;57.95;;
55112;SDS011;41006;50.920;3.456;2022-12-18T00:46:11;103.22;;;58.58;;
55112;SDS011;41006;50.920;3.456;2022-12-18T00:46:46;94.38;;;58.85;;
55112;SDS011;41006;50.920;3.456;2022-12-18T00:47:19;92.20;;;56.50;;
55112;SDS011;41006;50.920;3.456;2022-12-18T00:47:50;106.60;;;61.58;;
55112;SDS011;41006;50.920;3.456;2022-12-18T00:48:21;92.80;;;56.67;;
55112;SDS011;41006;50.920;3.456;2022-12-18T00:48:54;95.93;;;55.70;;
55112;SDS011;41006;50.920;3.456;2022-12-18T00:49:30;93.43;;;55.53;;
55112;SDS011;41006;50.920;3.456;2022-12-18T00:50:03;89.93;;;55.83;;
55112;SDS011;41006;50.920;3.456;2022-12-18T00:50:34;91.13;;;53.80;;
55112;SDS011;41006;50.920;3.456;2022-12-18T00:51:05;94.20;;;53.05;;
55112;SDS011;41006;50.920;3.456;2022-12-18T00:51:38;93.30;;;52.03;;
55112;SDS011;41006;50.920;3.456;2022-12-18T00:52:12;86.72;;;52.85;;
55112;SDS011;41006;50.920;3.456;2022-12-18T00:52:42;92.72;;;53.50;;
55112;SDS011;41006;50.920;3.456;2022-12-18T00:53:16;88.68;;;53.05;;
55112;SDS011;41006;50.920;3.456;2022-12-18T00:53:49;81.95;;;48.28;;
55112;SDS011;41006;50.920;3.456;2022-12-18T00:54:20;86.45;;;49.33;;
55112;SDS011;41006;50.920;3.456;2022-12-18T00:54:51;86.95;;;50.00;;
55112;SDS011;41006;50.920;3.456;2022-12-18T00:55:23;79.00;;;48.22;;
55112;SDS011;41006;50.920;3.456;2022-12-18T00:55:56;83.55;;;47.25;;
55112;SDS011;41006;50.920;3.456;2022-12-18T00:56:29;76.80;;;46.75;;
55112;SDS011;41006;50.920;3.456;2022-12-18T00:57:01;81.55;;;47.45;;
55112;SDS011;41006;50.920;3.456;2022-12-18T00:57:33;79.90;;;46.45;;
55112;SDS011;41006;50.920;3.456;2022-12-18T00:58:07;75.75;;;45.60;;
55112;SDS011;41006;50.920;3.456;2022-12-18T00:58:41;78.88;;;46.53;;
55112;SDS011;41006;50.920;3.456;2022-12-18T00:59:11;74.40;;;45.03;;
55112;SDS011;41006;50.920;3.456;2022-12-18T00:59:42;72.50;;;45.13;;
55112;SDS011;41006;50.920;3.456;2022-12-18T01:00:14;77.47;;;44.50;;
55112;SDS011;41006;50.920;3.456;2022-12-18T01:00:45;68.85;;;44.20;;
55112;SDS011;41006;50.920;3.456;2022-12-18T01:01:16;72.25;;;43.72;;
55112;SDS011;41006;50.920;3.456;2022-12-18T01:01:50;75.40;;;42.33;;
55112;SDS011;41006;50.920;3.456;2022-12-18T01:02:22;81.60;;;44.83;;
55112;SDS011;41006;50.920;3.456;2022-12-18T01:02:56;75.50;;;44.03;;
55112;SDS011;41006;50.920;3.456;2022-12-18T01:03:27;72.72;;;44.50;;
55112;SDS011;41006;50.920;3.456;2022-12-18T01:03:57;82.57;;;45.97;;
55112;SDS011;41006;50.920;3.456;2022-12-18T01:04:28;74.38;;;43.58;;
55112;SDS011;41006;50.920;3.456;2022-12-18T01:05:03;77.78;;;42.95;;
55112;SDS011;41006;50.920;3.456;2022-12-18T01:05:38;71.38;;;44.78;;
55112;SDS011;41006;50.920;3.456;2022-12-18T01:06:10;73.20;;;42.78;;
55112;SDS011;41006;50.920;3.456;2022-12-18T01:06:43;73.57;;;44.03;;
55112;SDS011;41006;50.920;3.456;2022-12-18T01:07:17;69.80;;;44.20;;
55112;SDS011;41006;50.920;3.456;2022-12-18T01:07:51;78.05;;;45.28;;
55112;SDS011;41006;50.920;3.456;2022-12-18T01:08:21;76.82;;;44.58;;
55112;SDS011;41006;50.920;3.456;2022-12-18T01:08:52;81.18;;;44.88;;
55112;SDS011;41006;50.920;3.456;2022-12-18T01:09:22;81.60;;;46.50;;
55112;SDS011;41006;50.920;3.456;2022-12-18T01:09:56;75.60;;;44.90;;
55112;SDS011;41006;50.920;3.456;2022-12-18T01:10:28;77.05;;;43.95;;
55112;SDS011;41006;50.920;3.456;2022-12-18T01:10:58;72.57;;;45.33;;
55112;SDS011;41006;50.920;3.456;2022-12-18T01:11:42;72.75;;;44.35;;
55112;SDS011;41006;50.920;3.456;2022-12-18T01:12:15;73.10;;;42.00;;
55112;SDS011;41006;50.920;3.456;2022-12-18T01:12:47;75.45;;;44.25;;
55112;SDS011;41006;50.920;3.456;2022-12-18T01:13:20;71.60;;;42.97;;
55112;SDS011;41006;50.920;3.456;2022-12-18T01:13:51;65.70;;;42.13;;
55112;SDS011;41006;50.920;3.456;2022-12-18T01:14:22;75.38;;;44.53;;
55112;SDS011;41006;50.920;3.456;2022-12-18T01:14:55;78.78;;;43.75;;
55112;SDS011;41006;50.920;3.456;2022-12-18T01:15:28;66.20;;;41.72;;
55112;SDS011;41006;50.920;3.456;2022-12-18T01:15:59;75.22;;;43.63;;
55112;SDS011;41006;50.920;3.456;2022-12-18T01:16:29;76.00;;;45.80;;
55112;SDS011;41006;50.920;3.456;2022-12-18T01:17:00;73.38;;;43.30;;
55112;SDS011;41006;50.920;3.456;2022-12-18T01:17:36;74.72;;;43.42;;
55112;SDS011;41006;50.920;3.456;2022-12-18T01:18:08;70.55;;;43.17;;
55112;SDS011;41006;50.920;3.456;2022-12-18T01:18:39;78.25;;;47.35;;
55112;SDS011;41006;50.920;3.456;2022-12-18T01:19:10;75.75;;;42.72;;
55112;SDS011;41006;50.920;3.456;2022-12-18T01:19:42;74.05;;;43.05;;
55112;SDS011;41006;50.920;3.456;2022-12-18T01:20:15;74.72;;;40.88;;
55112;SDS011;41006;50.920;3.456;2022-12-18T01:20:48;65.72;;;40.13;;
55112;SDS011;41006;50.920;3.456;2022-12-18T01:21:21;64.38;;;40.58;;
55112;SDS011;41006;50.920;3.456;2022-12-18T01:21:53;74.22;;;41.50;;
55112;SDS011;41006;50.920;3.456;2022-12-18T01:22:24;77.30;;;41.72;;
55112;SDS011;41006;50.920;3.456;2022-12-18T01:22:54;72.45;;;41.42;;
55112;SDS011;41006;50.920;3.456;2022-12-18T01:23:27;70.28;;;43.90;;
55112;SDS011;41006;50.920;3.456;2022-12-18T01:24:03;75.05;;;43.83;;
55112;SDS011;41006;50.920;3.456;2022-12-18T01:24:34;68.40;;;43.35;;
55112;SDS011;41006;50.920;3.456;2022-12-18T01:25:06;71.13;;;41.95;;
55112;SDS011;41006;50.920;3.456;2022-12-18T01:25:40;68.85;;;41.63;;
55112;SDS011;41006;50.920;3.456;2022-12-18T01:26:11;73.65;;;41.33;;
55112;SDS011;41006;50.920;3.456;2022-12-18T01:26:46;64.88;;;40.38;;
55112;SDS011;41006;50.920;3.456;2022-12-18T01:27:17;68.55;;;42.25;;
55112;SDS011;41006;50.920;3.456;2022-12-18T01:27:50;74.95;;;42.35;;
55112;SDS011;41006;50.920;3.456;2022-12-18T01:28:25;70.75;;;42.33;;
55112;SDS011;41006;50.920;3.456;2022-12-18T01:28:58;68.28;;;40.03;;
55112;SDS011;41006;50.920;3.456;2022-12-18T01:29:29;65.53;;;40.13;;
55112;SDS011;41006;50.920;3.456;2022-12-18T01:30:02;70.40;;;41.13;;
55112;SDS011;41006;50.920;3.456;2022-12-18T01:30:33;69.32;;;40.38;;
55112;SDS011;41006;50.920;3.456;2022-12-18T01:31:43;67.78;;;39.28;;
55112;SDS011;41006;50.920;3.456;2022-12-18T01:32:13;68.78;;;40.53;;
55112;SDS011;41006;50.920;3.456;2022-12-18T01:32:44;70.38;;;40.22;;
55112;SDS011;41006;50.920;3.456;2022-12-18T01:33:17;66.55;;;39.72;;
55112;SDS011;41006;50.920;3.456;2022-12-18T01:33:48;67.03;;;41.22;;
55112;SDS011;41006;50.920;3.456;2022-12-18T01:34:24;68.47;;;39.83;;
55112;SDS011;41006;50.920;3.456;2022-12-18T01:34:54;65.68;;;39.60;;
55112;SDS011;41006;50.920;3.456;2022-12-18T01:35:30;71.53;;;40.70;;
55112;SDS011;41006;50.920;3.456;2022-12-18T01:36:02;68.28;;;41.53;;
55112;SDS011;41006;50.920;3.456;2022-12-18T01:36:34;62.92;;;37.95;;
55112;SDS011;41006;50.920;3.456;2022-12-18T01:37:07;70.65;;;39.47;;
55112;SDS011;41006;50.920;3.456;2022-12-18T01:37:37;73.05;;;39.58;;
55112;SDS011;41006;50.920;3.456;2022-12-18T01:38:08;71.78;;;41.13;;
55112;SDS011;41006;50.920;3.456;2022-12-18T01:38:41;69.53;;;40.17;;
55112;SDS011;41006;50.920;3.456;2022-12-18T01:39:15;66.10;;;38.78;;
55112;SDS011;41006;50.920;3.456;2022-12-18T01:39:49;67.63;;;40.67;;
55112;SDS011;41006;50.920;3.456;2022-12-18T01:40:19;65.68;;;39.67;;
55112;SDS011;41006;50.920;3.456;2022-12-18T01:40:56;67.25;;;38.65;;
55112;SDS011;41006;50.920;3.456;2022-12-18T01:41:28;70.32;;;38.60;;
55112;SDS011;41006;50.920;3.456;2022-12-18T01:42:22;69.10;;;40.42;;
55112;SDS011;41006;50.920;3.456;2022-12-18T01:42:59;69.53;;;38.33;;
55112;SDS011;41006;50.920;3.456;2022-12-18T01:45:24;68.70;;;37.75;;
55112;SDS011;41006;50.920;3.456;2022-12-18T01:46:01;69.03;;;37.05;;
55112;SDS011;41006;50.920;3.456;2022-12-18T01:46:31;69.60;;;39.83;;
55112;SDS011;41006;50.920;3.456;2022-12-18T01:47:09;69.45;;;39.58;;
55112;SDS011;41006;50.920;3.456;2022-12-18T01:48:03;75.40;;;40.15;;
55112;SDS011;41006;50.920;3.456;2022-12-18T01:48:37;71.65;;;40.28;;
55112;SDS011;41006;50.920;3.456;2022-12-18T01:49:14;73.63;;;41.60;;
55112;SDS011;41006;50.920;3.456;2022-12-18T01:49:44;72.35;;;40.10;;
55112;SDS011;41006;50.920;3.456;2022-12-18T01:50:45;70.13;;;39.90;;
55112;SDS011;41006;50.920;3.456;2022-12-18T01:51:15;71.97;;;41.03;;
55112;SDS011;41006;50.920;3.456;2022-12-18T01:51:50;75.38;;;41.80;;
55112;SDS011;41006;50.920;3.456;2022-12-18T01:52:24;73.40;;;40.03;;
55112;SDS011;41006;50.920;3.456;2022-12-18T01:53:21;77.18;;;41.80;;
55112;SDS011;41006;50.920;3.456;2022-12-18T01:53:54;74.30;;;41.72;;
55112;SDS011;41006;50.920;3.456;2022-12-18T01:54:27;76.00;;;40.95;;
55112;SDS011;41006;50.920;3.456;2022-12-18T01:54:58;70.30;;;39.10;;
55112;SDS011;41006;50.920;3.456;2022-12-18T01:55:35;67.57;;;39.83;;
55112;SDS011;41006;50.920;3.456;2022-12-18T01:56:18;75.05;;;42.25;;
55112;SDS011;41006;50.920;3.456;2022-12-18T01:56:52;71.95;;;39.78;;
55112;SDS011;41006;50.920;3.456;2022-12-18T01:57:26;75.25;;;40.47;;
55112;SDS011;41006;50.920;3.456;2022-12-18T01:58:02;77.22;;;42.70;;
55112;SDS011;41006;50.920;3.456;2022-12-18T01:59:25;66.05;;;38.10;;
55112;SDS011;41006;50.920;3.456;2022-12-18T01:59:56;73.40;;;39.55;;
55112;SDS011;41006;50.920;3.456;2022-12-18T02:00:31;67.57;;;36.60;;
55112;SDS011;41006;50.920;3.456;2022-12-18T02:01:04;74.40;;;42.00;;
55112;SDS011;41006;50.920;3.456;2022-12-18T02:01:37;73.75;;;40.35;;
55112;SDS011;41006;50.920;3.456;2022-12-18T02:02:08;75.78;;;39.30;;
55112;SDS011;41006;50.920;3.456;2022-12-18T02:02:45;71.72;;;39.15;;
55112;SDS011;41006;50.920;3.456;2022-12-18T02:03:16;78.38;;;41.28;;
55112;SDS011;41006;50.920;3.456;2022-12-18T02:03:50;72.05;;;40.00;;
55112;SDS011;41006;50.920;3.456;2022-12-18T02:04:25;69.63;;;38.70;;
55112;SDS011;41006;50.920;3.456;2022-12-18T02:04:56;67.97;;;37.45;;
55112;SDS011;41006;50.920;3.456;2022-12-18T02:06:18;70.10;;;39.20;;
55112;SDS011;41006;50.920;3.456;2022-12-18T02:09:50;65.53;;;36.40;;
55112;SDS011;41006;50.920;3.456;2022-12-18T02:12:48;69.78;;;36.60;;
55112;SDS011;41006;50.920;3.456;2022-12-18T02:13:43;65.82;;;35.22;;
55112;SDS011;41006;50.920;3.456;2022-12-18T02:14:26;69.82;;;36.92;;
55112;SDS011;41006;50.920;3.456;2022-12-18T02:16:43;72.18;;;40.67;;
55112;SDS011;41006;50.920;3.456;2022-12-18T02:17:33;68.32;;;38.95;;
55112;SDS011;41006;50.920;3.456;2022-12-18T02:18:28;73.72;;;38.92;;
55112;SDS011;41006;50.920;3.456;2022-12-18T02:21:04;66.40;;;37.20;;
55112;SDS011;41006;50.920;3.456;2022-12-18T02:21:51;68.78;;;39.38;;
55112;SDS011;41006;50.920;3.456;2022-12-18T02:24:54;69.57;;;40.78;;
55112;SDS011;41006;50.920;3.456;2022-12-18T02:25:52;64.93;;;38.28;;
55112;SDS011;41006;50.920;3.456;2022-12-18T02:27:08;71.35;;;39.80;;
55112;SDS011;41006;50.920;3.456;2022-12-18T02:27:44;67.93;;;41.08;;
55112;SDS011;41006;50.920;3.456;2022-12-18T02:28:19;61.55;;;36.45;;
55112;SDS011;41006;50.920;3.456;2022-12-18T02:30:12;65.63;;;39.95;;
55112;SDS011;41006;50.920;3.456;2022-12-18T02:30:46;62.95;;;37.50;;
55112;SDS011;41006;50.920;3.456;2022-12-18T02:31:27;69.55;;;38.70;;
55112;SDS011;41006;50.920;3.456;2022-12-18T02:32:00;61.40;;;38.95;;
55112;SDS011;41006;50.920;3.456;2022-12-18T02:32:37;70.95;;;39.15;;
55112;SDS011;41006;50.920;3.456;2022-12-18T02:33:13;65.47;;;37.47;;
55112;SDS011;41006;50.920;3.456;2022-12-18T02:33:45;72.00;;;38.90;;
55112;SDS011;41006;50.920;3.456;2022-12-18T02:34:22;63.50;;;37.67;;
55112;SDS011;41006;50.920;3.456;2022-12-18T02:34:58;71.53;;;39.10;;
55112;SDS011;41006;50.920;3.456;2022-12-18T02:35:30;68.93;;;38.78;;
55112;SDS011;41006;50.920;3.456;2022-12-18T02:36:05;63.60;;;36.95;;
55112;SDS011;41006;50.920;3.456;2022-12-18T02:36:38;63.90;;;36.38;;
55112;SDS011;41006;50.920;3.456;2022-12-18T02:37:15;62.67;;;37.63;;
55112;SDS011;41006;50.920;3.456;2022-12-18T02:37:48;67.93;;;38.42;;
55112;SDS011;41006;50.920;3.456;2022-12-18T02:38:19;61.70;;;35.95;;
55112;SDS011;41006;50.920;3.456;2022-12-18T02:38:51;66.95;;;37.17;;
55112;SDS011;41006;50.920;3.456;2022-12-18T02:39:23;61.20;;;35.45;;
55112;SDS011;41006;50.920;3.456;2022-12-18T02:39:56;61.72;;;36.15;;
55112;SDS011;41006;50.920;3.456;2022-12-18T02:40:29;68.60;;;36.05;;
55112;SDS011;41006;50.920;3.456;2022-12-18T02:41:02;61.85;;;36.13;;
55112;SDS011;41006;50.920;3.456;2022-12-18T02:41:36;64.72;;;35.50;;
55112;SDS011;41006;50.920;3.456;2022-12-18T02:42:08;67.32;;;38.17;;
55112;SDS011;41006;50.920;3.456;2022-12-18T02:42:45;56.88;;;34.15;;
55112;SDS011;41006;50.920;3.456;2022-12-18T02:43:17;64.43;;;35.67;;
55112;SDS011;41006;50.920;3.456;2022-12-18T02:43:58;60.88;;;34.70;;
55112;SDS011;41006;50.920;3.456;2022-12-18T02:44:32;64.55;;;35.70;;
55112;SDS011;41006;50.920;3.456;2022-12-18T02:45:17;67.78;;;34.83;;
55112;SDS011;41006;50.920;3.456;2022-12-18T02:45:56;68.22;;;36.58;;
55112;SDS011;41006;50.920;3.456;2022-12-18T02:47:08;60.17;;;34.28;;
55112;SDS011;41006;50.920;3.456;2022-12-18T02:47:42;65.78;;;34.92;;
55112;SDS011;41006;50.920;3.456;2022-12-18T02:48:23;68.00;;;35.80;;
55112;SDS011;41006;50.920;3.456;2022-12-18T02:49:34;59.22;;;34.83;;
55112;SDS011;41006;50.920;3.456;2022-12-18T02:50:30;60.58;;;33.78;;
55112;SDS011;41006;50.920;3.456;2022-12-18T02:52:07;59.25;;;34.22;;
55112;SDS011;41006;50.920;3.456;2022-12-18T02:54:07;63.42;;;35.53;;
55112;SDS011;41006;50.920;3.456;2022-12-18T02:56:38;73.72;;;38.28;;
55112;SDS011;41006;50.920;3.456;2022-12-18T02:57:58;61.55;;;37.45;;
55112;SDS011;41006;50.920;3.456;2022-12-18T02:59:28;62.88;;;34.65;;
55112;SDS011;41006;50.920;3.456;2022-12-18T03:00:12;67.82;;;35.95;;
55112;SDS011;41006;50.920;3.456;2022-12-18T03:00:51;68.95;;;34.90;;
55112;SDS011;41006;50.920;3.456;2022-12-18T03:01:34;66.65;;;33.42;;
55112;SDS011;41006;50.920;3.456;2022-12-18T03:06:38;60.08;;;33.80;;
55112;SDS011;41006;50.920;3.456;2022-12-18T03:07:15;65.88;;;35.38;;
55112;SDS011;41006;50.920;3.456;2022-12-18T03:07:53;63.45;;;32.70;;
55112;SDS011;41006;50.920;3.456;2022-12-18T03:08:29;62.10;;;33.15;;
55112;SDS011;41006;50.920;3.456;2022-12-18T03:09:06;61.90;;;35.00;;
55112;SDS011;41006;50.920;3.456;2022-12-18T03:09:40;60.33;;;33.33;;
55112;SDS011;41006;50.920;3.456;2022-12-18T03:10:32;59.92;;;33.00;;
55112;SDS011;41006;50.920;3.456;2022-12-18T03:11:10;62.53;;;34.58;;
55112;SDS011;41006;50.920;3.456;2022-12-18T03:11:42;62.90;;;32.72;;
55112;SDS011;41006;50.920;3.456;2022-12-18T03:12:40;59.78;;;31.48;;
55112;SDS011;41006;50.920;3.456;2022-12-18T03:13:40;61.63;;;32.35;;
55112;SDS011;41006;50.920;3.456;2022-12-18T03:14:26;59.15;;;32.42;;
55112;SDS011;41006;50.920;3.456;2022-12-18T03:15:04;59.88;;;32.92;;
55112;SDS011;41006;50.920;3.456;2022-12-18T03:15:47;61.22;;;33.97;;
55112;SDS011;41006;50.920;3.456;2022-12-18T03:16:23;63.10;;;34.00;;
55112;SDS011;41006;50.920;3.456;2022-12-18T03:17:02;59.08;;;32.13;;
55112;SDS011;41006;50.920;3.456;2022-12-18T03:17:35;69.40;;;35.42;;
55112;SDS011;41006;50.920;3.456;2022-12-18T03:18:14;54.85;;;32.17;;
55112;SDS011;41006;50.920;3.456;2022-12-18T03:18:51;59.25;;;35.30;;
55112;SDS011;41006;50.920;3.456;2022-12-18T03:19:29;61.70;;;34.55;;
55112;SDS011;41006;50.920;3.456;2022-12-18T03:20:09;66.40;;;34.83;;
55112;SDS011;41006;50.920;3.456;2022-12-18T03:20:45;61.15;;;34.95;;
55112;SDS011;41006;50.920;3.456;2022-12-18T03:21:19;63.13;;;34.42;;
55112;SDS011;41006;50.920;3.456;2022-12-18T03:21:53;61.20;;;36.30;;
55112;SDS011;41006;50.920;3.456;2022-12-18T03:22:29;64.97;;;34.55;;
55112;SDS011;41006;50.920;3.456;2022-12-18T03:23:09;62.75;;;35.33;;
55112;SDS011;41006;50.920;3.456;2022-12-18T03:23:44;65.88;;;36.50;;
55112;SDS011;41006;50.920;3.456;2022-12-18T03:24:18;54.78;;;36.25;;
55112;SDS011;41006;50.920;3.456;2022-12-18T03:24:54;57.67;;;35.83;;
55112;SDS011;41006;50.920;3.456;2022-12-18T03:25:28;60.40;;;36.22;;
55112;SDS011;41006;50.920;3.456;2022-12-18T03:26:07;58.45;;;37.00;;
55112;SDS011;41006;50.920;3.456;2022-12-18T03:26:44;61.90;;;37.15;;
55112;SDS011;41006;50.920;3.456;2022-12-18T03:27:18;60.58;;;36.72;;
55112;SDS011;41006;50.920;3.456;2022-12-18T03:27:53;66.22;;;37.30;;
55112;SDS011;41006;50.920;3.456;2022-12-18T03:28:30;62.85;;;39.22;;
55112;SDS011;41006;50.920;3.456;2022-12-18T03:29:10;65.25;;;38.30;;
55112;SDS011;41006;50.920;3.456;2022-12-18T03:29:58;65.53;;;38.20;;
55112;SDS011;41006;50.920;3.456;2022-12-18T03:31:09;59.10;;;36.17;;
55112;SDS011;41006;50.920;3.456;2022-12-18T03:31:42;64.22;;;38.38;;
55112;SDS011;41006;50.920;3.456;2022-12-18T03:32:29;62.63;;;38.60;;
55112;SDS011;41006;50.920;3.456;2022-12-18T03:33:08;58.33;;;36.28;;
55112;SDS011;41006;50.920;3.456;2022-12-18T03:33:51;65.47;;;37.50;;
55112;SDS011;41006;50.920;3.456;2022-12-18T03:34:30;56.00;;;33.75;;
55112;SDS011;41006;50.920;3.456;2022-12-18T03:35:05;53.78;;;36.10;;
55112;SDS011;41006;50.920;3.456;2022-12-18T03:35:41;60.72;;;35.67;;
55112;SDS011;41006;50.920;3.456;2022-12-18T03:36:12;54.17;;;36.80;;
55112;SDS011;41006;50.920;3.456;2022-12-18T03:36:43;61.97;;;36.83;;
55112;SDS011;41006;50.920;3.456;2022-12-18T03:37:16;60.95;;;37.70;;
55112;SDS011;41006;50.920;3.456;2022-12-18T03:37:46;60.05;;;36.20;;
55112;SDS011;41006;50.920;3.456;2022-12-18T03:38:22;60.63;;;35.45;;
55112;SDS011;41006;50.920;3.456;2022-12-18T03:38:57;64.60;;;36.35;;
55112;SDS011;41006;50.920;3.456;2022-12-18T03:39:27;53.00;;;34.15;;
55112;SDS011;41006;50.920;3.456;2022-12-18T03:40:00;62.72;;;35.95;;
55112;SDS011;41006;50.920;3.456;2022-12-18T03:41:16;56.95;;;35.13;;
55112;SDS011;41006;50.920;3.456;2022-12-18T03:41:55;60.42;;;36.67;;
55112;SDS011;41006;50.920;3.456;2022-12-18T03:42:49;58.55;;;34.67;;
55112;SDS011;41006;50.920;3.456;2022-12-18T03:43:35;54.60;;;35.00;;
55112;SDS011;41006;50.920;3.456;2022-12-18T03:44:31;56.20;;;37.05;;
55112;SDS011;41006;50.920;3.456;2022-12-18T03:45:23;56.60;;;36.00;;
55112;SDS011;41006;50.920;3.456;2022-12-18T03:46:05;61.80;;;37.70;;
55112;SDS011;41006;50.920;3.456;2022-12-18T03:46:54;56.15;;;37.83;;
55112;SDS011;41006;50.920;3.456;2022-12-18T03:47:47;51.58;;;37.85;;
55112;SDS011;41006;50.920;3.456;2022-12-18T03:48:32;63.10;;;39.05;;
55112;SDS011;41006;50.920;3.456;2022-12-18T03:49:12;52.10;;;38.92;;
55112;SDS011;41006;50.920;3.456;2022-12-18T03:52:30;59.83;;;43.60;;
55112;SDS011;41006;50.920;3.456;2022-12-18T03:53:17;61.30;;;43.10;;
55112;SDS011;41006;50.920;3.456;2022-12-18T03:53:59;63.17;;;45.20;;
55112;SDS011;41006;50.920;3.456;2022-12-18T03:54:32;62.30;;;43.17;;
55112;SDS011;41006;50.920;3.456;2022-12-18T03:55:05;56.20;;;41.05;;
55112;SDS011;41006;50.920;3.456;2022-12-18T03:55:39;61.78;;;42.55;;
55112;SDS011;41006;50.920;3.456;2022-12-18T03:56:13;56.60;;;41.58;;
55112;SDS011;41006;50.920;3.456;2022-12-18T03:56:48;65.78;;;44.42;;
55112;SDS011;41006;50.920;3.456;2022-12-18T03:57:27;65.28;;;43.53;;
55112;SDS011;41006;50.920;3.456;2022-12-18T03:58:03;55.78;;;40.78;;
55112;SDS011;41006;50.920;3.456;2022-12-18T03:58:37;56.67;;;41.85;;
55112;SDS011;41006;50.920;3.456;2022-12-18T03:59:10;62.63;;;42.70;;
55112;SDS011;41006;50.920;3.456;2022-12-18T03:59:45;62.28;;;43.15;;